createdAt,value
2022-09-06T00:02:26.886Z,12.30
2022-09-06T00:07:29.892Z,13.05
2022-09-06T00:12:34.215Z,15.05
2022-09-06T00:17:37.052Z,13.75
2022-09-06T00:22:39.875Z,11.95
2022-09-06T00:27:43.892Z,15.65
2022-09-06T00:32:46.645Z,14.05
2022-09-06T00:37:49.356Z,13.73
2022-09-06T00:42:53.357Z,12.27
2022-09-06T00:47:56.624Z,11.55
2022-09-06T00:52:59.399Z,12.95
2022-09-06T00:58:06.468Z,13.80
2022-09-06T01:03:11.001Z,14.73
2022-09-06T01:08:23.232Z,9.60
2022-09-06T01:13:38.483Z,10.98
2022-09-06T01:18:54.550Z,9.30
2022-09-06T01:24:36.179Z,11.98
2022-09-06T01:29:46.279Z,8.70
2022-09-06T01:34:54.774Z,9.68
2022-09-06T01:39:57.548Z,9.52
2022-09-06T01:45:05.019Z,9.13
2022-09-06T01:50:32.568Z,9.27
2022-09-06T01:55:44.538Z,9.05
2022-09-06T02:00:59.895Z,8.57
2022-09-06T02:06:08.397Z,10.30
2022-09-06T02:11:11.674Z,10.30
2022-09-06T02:16:21.126Z,13.35
2022-09-06T02:21:28.237Z,9.32
2022-09-06T02:26:36.064Z,13.57
2022-09-06T02:31:43.923Z,10.43
2022-09-06T02:36:47.270Z,11.20
2022-09-06T02:41:50.200Z,11.73
2022-09-06T02:46:57.132Z,14.25
2022-09-06T02:52:00.169Z,12.50
2022-09-06T02:57:02.839Z,13.90
2022-09-06T03:02:06.961Z,12.05
2022-09-06T03:07:09.657Z,12.50
2022-09-06T03:12:12.351Z,11.35
2022-09-06T03:17:16.338Z,15.98
2022-09-06T03:22:19.155Z,11.93
2022-09-06T03:27:21.761Z,12.93
2022-09-06T03:32:25.816Z,12.93
2022-09-06T03:37:29.151Z,14.73
2022-09-06T03:42:31.832Z,12.55
2022-09-06T03:47:35.903Z,15.32
2022-09-06T03:52:38.575Z,12.20
2022-09-06T03:57:41.251Z,11.90
2022-09-06T04:02:45.337Z,12.45
2022-09-06T04:07:48.089Z,15.70
2022-09-06T04:12:50.776Z,12.82
2022-09-06T04:17:54.812Z,12.32
2022-09-06T04:22:57.493Z,13.13
2022-09-06T04:28:00.197Z,13.73
2022-09-06T04:33:04.210Z,12.75
2022-09-06T04:38:06.983Z,13.82
2022-09-06T04:43:09.674Z,13.57
2022-09-06T04:48:13.715Z,12.80
2022-09-06T04:53:16.398Z,11.20
2022-09-06T04:58:19.248Z,13.57
2022-09-06T05:03:23.228Z,11.43
2022-09-06T05:08:26.058Z,13.40
2022-09-06T05:13:29.121Z,14.00
2022-09-06T05:18:34.034Z,10.70
2022-09-06T05:23:36.888Z,10.95
2022-09-06T05:28:39.680Z,10.73
2022-09-06T05:33:44.529Z,14.23
2022-09-06T05:38:47.248Z,13.45
2022-09-06T05:43:50.226Z,13.25
2022-09-06T05:48:55.204Z,11.80
2022-09-06T05:53:58.041Z,14.43
2022-09-06T05:59:00.793Z,13.52
2022-09-06T06:04:07.978Z,11.75
2022-09-06T06:09:10.671Z,13.27
2022-09-06T06:14:13.395Z,10.48
2022-09-06T06:19:17.505Z,7.50
2022-09-06T06:24:20.348Z,7.70
2022-09-06T06:29:24.840Z,5.90
2022-09-06T06:34:28.824Z,8.02
2022-09-06T06:39:31.628Z,7.07
2022-09-06T06:44:34.321Z,5.47
2022-09-06T06:49:38.348Z,6.50
2022-09-06T06:54:41.406Z,6.63
2022-09-06T06:59:44.116Z,6.00
2022-09-06T07:04:48.084Z,6.25
2022-09-06T07:15:15.495Z,5.88
2022-09-06T07:20:20.380Z,9.52
2022-09-06T07:25:23.097Z,4.32
2022-09-06T07:30:25.903Z,5.20
2022-09-06T07:35:29.941Z,4.55
2022-09-06T07:40:32.634Z,7.18
2022-09-06T07:45:35.606Z,8.15
2022-09-06T07:50:48.005Z,7.60
2022-09-06T07:55:51.772Z,6.93
2022-09-06T08:00:54.587Z,6.55
2022-09-06T08:06:14.227Z,5.13
2022-09-06T08:11:16.998Z,5.35
2022-09-06T08:16:20.200Z,7.20
2022-09-06T08:21:25.465Z,7.63
2022-09-06T08:26:29.783Z,5.20
2022-09-06T08:31:34.310Z,7.80
2022-09-06T08:36:38.360Z,5.88
2022-09-06T08:41:48.388Z,5.25
2022-09-06T08:46:58.361Z,5.97
2022-09-06T08:52:32.101Z,5.85
2022-09-06T08:57:53.932Z,9.00
2022-09-06T09:03:08.233Z,5.85
2022-09-06T09:08:22.731Z,4.75
2022-09-06T09:13:31.634Z,10.85
2022-09-06T09:18:38.385Z,5.88
2022-09-06T09:23:42.380Z,5.85
2022-09-06T09:29:03.665Z,6.22
2022-09-06T09:34:11.048Z,7.55
2022-09-06T09:39:15.076Z,5.32
2022-09-06T09:44:19.941Z,5.57
2022-09-06T09:49:30.281Z,9.90
2022-09-06T09:54:38.011Z,5.57
2022-09-06T09:59:46.470Z,5.47
2022-09-06T10:04:52.516Z,5.75
2022-09-06T10:10:01.828Z,5.43
2022-09-06T10:15:07.272Z,6.25
2022-09-06T10:20:12.860Z,8.80
2022-09-06T10:25:39.023Z,7.05
2022-09-06T10:30:48.936Z,5.65
2022-09-06T10:35:51.935Z,3.58
2022-09-06T10:41:08.448Z,6.57
2022-09-06T10:46:15.848Z,8.45
2022-09-06T10:51:35.022Z,8.00
2022-09-06T10:56:44.293Z,5.40
2022-09-06T11:01:57.004Z,4.18
2022-09-06T11:07:04.105Z,4.70
2022-09-06T11:12:15.243Z,5.68
2022-09-06T11:17:29.048Z,6.60
2022-09-06T11:23:03.219Z,5.68
2022-09-06T11:28:11.865Z,3.78
2022-09-06T11:33:24.717Z,5.03
2022-09-06T11:38:28.738Z,4.97
2022-09-06T11:43:47.760Z,6.05
2022-09-06T11:49:02.711Z,8.65
2022-09-06T11:54:13.269Z,4.53
2022-09-06T11:59:36.987Z,3.70
2022-09-06T12:05:15.203Z,6.97
2022-09-06T12:10:45.832Z,5.50
2022-09-06T12:15:56.535Z,5.63
2022-09-06T12:21:03.766Z,3.33
2022-09-06T12:26:07.357Z,9.45
2022-09-06T12:31:38.840Z,4.38
2022-09-06T12:36:57.391Z,3.85
2022-09-06T12:42:03.537Z,4.57
2022-09-06T12:47:15.062Z,4.72
2022-09-06T12:52:21.108Z,5.10
2022-09-06T12:57:25.988Z,4.90
2022-09-06T13:02:36.361Z,6.93
2022-09-06T13:07:44.323Z,4.55
2022-09-06T13:12:50.595Z,10.73
2022-09-06T13:17:56.561Z,4.00
2022-09-06T13:23:10.115Z,6.82
2022-09-06T13:28:23.631Z,6.43
2022-09-06T13:33:28.187Z,7.35
2022-09-06T13:38:34.444Z,7.63
2022-09-06T13:43:43.620Z,9.07
2022-09-06T13:48:47.595Z,12.40
2022-09-06T13:53:50.857Z,8.48
2022-09-06T13:58:53.532Z,6.80
2022-09-06T14:03:57.563Z,12.02
2022-09-06T14:09:07.329Z,13.02
2022-09-06T14:14:10.887Z,16.48
2022-09-06T14:19:15.959Z,13.35
2022-09-06T14:24:18.707Z,12.27
2022-09-06T14:29:21.544Z,17.63
2022-09-06T14:34:25.871Z,19.30
2022-09-06T14:39:28.615Z,20.73
2022-09-06T14:44:31.675Z,22.00
2022-09-06T14:49:35.708Z,17.10
2022-09-06T14:54:38.623Z,17.65
2022-09-06T14:59:41.492Z,15.55
2022-09-06T15:04:45.835Z,14.50
2022-09-06T15:09:50.873Z,13.45
2022-09-06T15:14:53.598Z,18.80
2022-09-06T15:19:58.227Z,16.48
2022-09-06T15:25:00.894Z,10.85
2022-09-06T15:30:03.792Z,12.35
2022-09-06T15:35:08.831Z,9.95
2022-09-06T15:40:13.083Z,9.60
2022-09-06T15:45:16.076Z,12.00
2022-09-06T15:50:40.682Z,12.75
2022-09-06T15:55:57.870Z,12.60
2022-09-06T16:01:02.252Z,12.77
2022-09-06T16:11:28.453Z,10.07
2022-09-06T16:16:31.969Z,12.07
2022-09-06T16:21:38.987Z,13.27
2022-09-06T16:26:43.690Z,11.77
2022-09-06T16:31:46.848Z,13.63
2022-09-06T16:36:50.973Z,10.10
2022-09-06T16:41:53.651Z,10.23
2022-09-06T16:46:57.219Z,12.02
2022-09-06T16:52:01.229Z,12.10
2022-09-06T16:57:04.098Z,11.73
2022-09-06T17:02:07.079Z,15.65
2022-09-06T17:07:11.224Z,11.63
2022-09-06T17:12:13.886Z,10.82
2022-09-06T17:17:17.823Z,10.40
2022-09-06T17:22:22.235Z,17.20
2022-09-06T17:27:24.954Z,23.02
2022-09-06T17:32:28.596Z,19.30
2022-09-06T17:37:33.466Z,20.40
2022-09-06T17:42:37.037Z,12.05
2022-09-06T17:47:39.710Z,13.77
2022-09-06T17:52:43.743Z,13.93
2022-09-06T17:57:46.398Z,13.02
2022-09-06T18:02:49.171Z,16.42
2022-09-06T18:07:53.308Z,14.85
2022-09-06T18:12:55.966Z,15.00
2022-09-06T18:17:58.940Z,11.00
2022-09-06T18:23:03.956Z,15.50
2022-09-06T18:28:06.613Z,14.98
2022-09-06T18:33:11.873Z,11.38
2022-09-06T18:38:15.839Z,13.88
2022-09-06T18:43:18.824Z,12.07
2022-09-06T18:48:21.535Z,13.10
2022-09-06T18:53:25.700Z,13.95
2022-09-06T18:58:28.732Z,16.48
2022-09-06T19:03:32.153Z,16.10
2022-09-06T19:08:36.296Z,20.92
2022-09-06T19:13:41.484Z,14.02
2022-09-06T19:18:44.214Z,13.35
2022-09-06T19:23:55.249Z,15.43
2022-09-06T19:28:59.821Z,13.70
2022-09-06T19:34:02.556Z,13.73
2022-09-06T19:39:08.970Z,14.57
2022-09-06T19:44:12.383Z,21.80
2022-09-06T19:49:16.235Z,19.83
2022-09-06T19:54:20.642Z,21.60
2022-09-06T19:59:23.332Z,19.80
2022-09-06T20:04:28.125Z,19.95
2022-09-06T20:09:32.192Z,17.65
2022-09-06T20:14:34.943Z,23.25
2022-09-06T20:19:37.631Z,22.48
2022-09-06T20:24:41.708Z,19.13
2022-09-06T20:29:44.343Z,19.60
2022-09-06T20:34:46.992Z,21.63
2022-09-06T20:39:51.116Z,22.77
2022-09-06T20:44:53.840Z,18.33
2022-09-06T20:49:56.524Z,20.45
2022-09-06T20:55:00.571Z,19.63
2022-09-06T21:00:03.960Z,20.33
2022-09-06T21:05:06.888Z,17.98
2022-09-06T21:10:11.558Z,19.00
2022-09-06T21:15:15.519Z,20.40
2022-09-06T21:20:18.219Z,18.08
2022-09-06T21:25:22.235Z,19.42
2022-09-06T21:30:24.908Z,18.38
2022-09-06T21:35:27.594Z,21.83
2022-09-06T21:40:34.791Z,17.55
2022-09-06T21:45:38.475Z,19.45
2022-09-06T21:50:41.160Z,18.58
2022-09-06T21:55:45.697Z,20.35
2022-09-06T22:00:53.373Z,20.13
2022-09-06T22:05:56.293Z,20.63
2022-09-06T22:11:08.875Z,17.77
2022-09-06T22:16:13.110Z,18.25
2022-09-06T22:21:18.680Z,17.77
2022-09-06T22:26:23.374Z,16.13
2022-09-06T22:31:28.187Z,18.63
2022-09-06T22:36:31.053Z,17.13
2022-09-06T22:41:35.260Z,22.30
2022-09-06T22:46:38.596Z,15.32
2022-09-06T22:51:41.307Z,17.85
2022-09-06T22:56:45.277Z,15.80
2022-09-06T23:01:47.923Z,17.77
2022-09-06T23:06:50.571Z,19.02
2022-09-06T23:11:55.390Z,18.20
2022-09-06T23:16:58.057Z,16.63
2022-09-06T23:22:00.777Z,15.77
2022-09-06T23:27:05.667Z,20.75
2022-09-06T23:32:08.588Z,20.27
2022-09-06T23:37:11.305Z,19.52
2022-09-06T23:42:15.528Z,17.48
2022-09-06T23:47:18.215Z,21.15
2022-09-06T23:52:20.919Z,19.27
2022-09-06T23:57:25.042Z,20.63
